Airfield :
LOGIN :

Register | Disclaimer

   EN    FR    IT 

 










Legend :    VFR   Marginal VFR   IFR   Intensive IFR   Very Intensive IFR
Visi :
Ceiling :
>= 8 km
>= 3000ft
5 to 8 km
1000 to 3000 ft
1500m to 5 km
500 to 1000 ft
800 to 1500m
200 to 500 ft
< 800m
< 200 ft
Symbols :   Thunderstorms  Fog  Heavy snow  Heavy precipitations  Wind > 20 kt
SIGMETs :     Misc.  Thunderstorms  Icing  Turbulence  Mountain Waves  Volcanic Ashes






- Airport Elevation : 296 ft
- IATA code : GKE


ETNG - Geilenkirchen

CURRENT METAR :
  • 161050Z 05009KT 9999 FEW045 BKN070 10/M01 Q1027 NOSIG

EXPIRED METARs :
  • 160950Z 01006KT 9999 FEW040 SCT070 08/01 Q1028 NOSIG
  • 160850Z 34003KT CAVOK 06/01 Q1028 NOSIG

TAF COR TAF ETNG
Valid from the 16 at 09:00 until the 17 at 00:00 UTC


160837Z 1609/1624 35003KT CAVOK
BECMG 1609/1611 03009G18KT SCT030 BKN060
BECMG 1616/1618 02003KT CAVOK



MET'MAP, your aeronautical weather chart ! - Copyright ORBIFLY December 2007 - Disclaimer

ORBIFLY MET'MAP TEAM :

Programming & Development : Alexandra Zaïnal
Concept & original design : Baudouin d'Aumeries
Assistance for programming : Marc-Olivier Méhu
Technical & hardware support : Manuel Goepfert

Contact : metmap@orbifly.com




SOURCES & CREDITS :

   NOAA